createdAt,value
2023-01-19T00:01:47.931Z,9.40
2023-01-19T00:04:15.867Z,9.53
2023-01-19T00:06:43.812Z,9.62
2023-01-19T00:09:11.761Z,9.55
2023-01-19T00:11:39.763Z,9.53
2023-01-19T00:14:07.707Z,9.57
2023-01-19T00:16:37.142Z,9.63
2023-01-19T00:19:05.584Z,9.60
2023-01-19T00:21:33.471Z,9.84
2023-01-19T00:24:01.409Z,9.94
2023-01-19T00:26:29.291Z,10.08
2023-01-19T00:28:57.799Z,9.97
2023-01-19T00:31:25.724Z,10.08
2023-01-19T00:33:55.028Z,10.18
2023-01-19T00:36:22.964Z,10.22
2023-01-19T00:38:50.963Z,10.53
2023-01-19T00:41:19.138Z,10.45
2023-01-19T00:43:46.085Z,10.43
2023-01-19T00:46:14.040Z,10.31
2023-01-19T00:48:42.000Z,10.32
2023-01-19T00:51:11.301Z,10.32
2023-01-19T00:53:39.861Z,10.29
2023-01-19T00:56:08.710Z,10.47
2023-01-19T00:58:36.714Z,10.85
2023-01-19T01:01:05.024Z,10.99
2023-01-19T01:03:33.250Z,11.16
2023-01-19T01:06:01.537Z,11.33
2023-01-19T01:08:31.073Z,11.55
2023-01-19T01:10:59.032Z,11.70
2023-01-19T01:13:27.894Z,11.77
2023-01-19T01:15:57.115Z,11.94
2023-01-19T01:18:25.358Z,11.64
2023-01-19T01:20:55.324Z,11.31
2023-01-19T01:23:24.256Z,11.22
2023-01-19T01:25:53.523Z,11.07
2023-01-19T01:28:21.560Z,11.08
2023-01-19T01:30:49.593Z,10.91
2023-01-19T01:33:39.989Z,10.90
2023-01-19T01:36:06.165Z,10.18
2023-01-19T01:38:34.172Z,10.10
2023-01-19T01:41:03.633Z,9.88
2023-01-19T01:43:44.966Z,9.73
2023-01-19T01:46:15.487Z,9.48
2023-01-19T01:48:47.426Z,9.30
2023-01-19T01:51:25.922Z,9.21
2023-01-19T01:54:02.041Z,9.11
2023-01-19T01:56:35.999Z,9.19
2023-01-19T01:59:08.074Z,9.12
2023-01-19T02:01:54.535Z,9.44
2023-01-19T02:04:24.237Z,9.51
2023-01-19T02:07:09.750Z,9.56
2023-01-19T02:09:56.706Z,9.43
2023-01-19T02:12:43.886Z,9.41
2023-01-19T02:15:20.816Z,9.30
2023-01-19T02:17:49.165Z,9.44
2023-01-19T02:20:18.026Z,9.59
2023-01-19T02:22:49.591Z,9.49
2023-01-19T02:25:20.625Z,9.57
2023-01-19T02:27:49.300Z,9.54
2023-01-19T02:30:18.963Z,9.71
2023-01-19T02:32:47.139Z,9.74
2023-01-19T02:35:15.259Z,9.65
2023-01-19T02:37:45.230Z,9.69
2023-01-19T02:40:20.371Z,9.63
2023-01-19T02:42:53.233Z,9.55
2023-01-19T02:45:23.423Z,9.59
2023-01-19T02:47:53.527Z,9.53
2023-01-19T02:50:43.780Z,9.61
2023-01-19T02:53:33.200Z,9.66
2023-01-19T02:56:12.515Z,9.64
2023-01-19T02:58:49.108Z,9.71
2023-01-19T03:01:28.226Z,9.74
2023-01-19T03:04:00.573Z,9.51
2023-01-19T03:06:42.630Z,9.34
2023-01-19T03:09:14.864Z,9.32
2023-01-19T03:11:49.214Z,9.32
2023-01-19T03:14:24.387Z,9.45
2023-01-19T03:16:57.211Z,9.32
2023-01-19T03:19:28.415Z,9.23
2023-01-19T03:21:59.550Z,9.37
2023-01-19T03:24:32.019Z,9.36
2023-01-19T03:27:04.248Z,9.55
2023-01-19T03:29:36.037Z,9.26
2023-01-19T03:32:09.169Z,9.09
2023-01-19T03:34:39.392Z,8.84
2023-01-19T03:37:11.443Z,9.10
2023-01-19T03:39:39.685Z,9.04
2023-01-19T03:42:12.898Z,9.49
2023-01-19T03:44:44.915Z,9.80
2023-01-19T03:47:15.887Z,9.69
2023-01-19T03:49:46.424Z,9.65
2023-01-19T03:52:14.381Z,9.70
2023-01-19T03:54:42.339Z,9.42
2023-01-19T03:57:10.358Z,9.37
2023-01-19T03:59:38.309Z,9.42
2023-01-19T04:02:07.706Z,9.59
2023-01-19T04:04:35.718Z,9.53
2023-01-19T04:07:03.549Z,9.59
2023-01-19T04:09:31.554Z,9.45
2023-01-19T04:12:01.601Z,9.46
2023-01-19T04:14:29.558Z,9.29
2023-01-19T04:16:57.472Z,9.20
2023-01-19T04:19:26.870Z,9.21
2023-01-19T04:21:55.674Z,9.04
2023-01-19T04:24:23.631Z,8.73
2023-01-19T04:26:53.467Z,8.87
2023-01-19T04:29:21.431Z,8.83
2023-01-19T04:31:49.306Z,8.66
2023-01-19T04:34:17.594Z,8.72
2023-01-19T04:36:47.025Z,8.90
2023-01-19T04:39:15.131Z,8.93
2023-01-19T04:41:43.513Z,8.96
2023-01-19T04:44:11.477Z,8.76
2023-01-19T04:46:39.393Z,8.63
2023-01-19T04:49:07.439Z,8.88
2023-01-19T04:51:35.628Z,8.69
2023-01-19T04:54:05.180Z,8.60
2023-01-19T04:56:33.157Z,8.46
2023-01-19T04:59:01.101Z,8.53
2023-01-19T05:01:29.382Z,8.63
2023-01-19T05:03:59.926Z,8.66
2023-01-19T05:06:27.912Z,8.56
2023-01-19T05:08:55.857Z,8.44
2023-01-19T05:11:25.630Z,8.48
2023-01-19T05:13:53.808Z,8.58
2023-01-19T05:16:21.763Z,8.54
2023-01-19T05:18:49.742Z,8.61
2023-01-19T05:21:17.669Z,8.44
2023-01-19T05:23:45.690Z,8.38
2023-01-19T05:26:14.045Z,8.43
2023-01-19T05:28:43.292Z,8.52
2023-01-19T05:31:11.287Z,8.32
2023-01-19T05:33:39.332Z,8.65
2023-01-19T05:36:07.711Z,8.78
2023-01-19T05:38:36.224Z,8.83
2023-01-19T05:41:04.498Z,8.94
2023-01-19T05:43:32.343Z,9.16
2023-01-19T05:46:01.692Z,9.12
2023-01-19T05:48:29.577Z,9.20
2023-01-19T05:51:01.581Z,9.30
2023-01-19T05:53:30.180Z,9.21
2023-01-19T05:56:01.648Z,9.41
2023-01-19T05:58:29.953Z,9.55
2023-01-19T06:00:57.989Z,9.15
2023-01-19T06:03:27.301Z,8.99
2023-01-19T06:05:57.990Z,8.95
2023-01-19T06:08:26.122Z,8.89
2023-01-19T06:10:54.224Z,8.85
2023-01-19T06:13:22.420Z,9.12
2023-01-19T06:15:50.449Z,9.25
2023-01-19T06:18:18.543Z,8.97
2023-01-19T06:20:47.807Z,8.83
2023-01-19T06:23:15.797Z,8.86
2023-01-19T06:25:43.758Z,8.82
2023-01-19T06:28:11.731Z,8.76
2023-01-19T06:30:40.530Z,8.65
2023-01-19T06:33:08.508Z,8.49
2023-01-19T06:35:36.967Z,8.30
2023-01-19T06:38:06.275Z,8.30
2023-01-19T06:40:34.126Z,8.43
2023-01-19T06:43:02.325Z,8.25
2023-01-19T06:45:30.669Z,8.43
2023-01-19T06:47:58.614Z,8.44
2023-01-19T06:50:26.699Z,8.35
2023-01-19T06:52:54.889Z,8.49
2023-01-19T06:55:24.372Z,8.80
2023-01-19T06:57:58.932Z,9.00
2023-01-19T07:00:27.881Z,8.85
2023-01-19T07:02:56.209Z,8.95
2023-01-19T07:05:24.499Z,9.03
2023-01-19T07:07:53.319Z,9.06
2023-01-19T07:10:21.797Z,9.23
2023-01-19T07:12:51.353Z,9.32
2023-01-19T07:15:22.654Z,9.45
2023-01-19T07:17:50.726Z,9.69
2023-01-19T07:20:19.700Z,9.96
2023-01-19T07:22:47.773Z,10.27
2023-01-19T07:25:16.263Z,10.59
2023-01-19T07:27:45.108Z,10.56
2023-01-19T07:30:16.101Z,10.54
2023-01-19T07:32:44.084Z,10.65
2023-01-19T07:35:12.179Z,10.72
2023-01-19T07:37:40.325Z,10.91
2023-01-19T07:40:09.378Z,11.02
2023-01-19T07:42:38.111Z,11.16
2023-01-19T07:45:06.938Z,11.24
2023-01-19T07:47:36.309Z,11.42
2023-01-19T07:50:04.612Z,11.74
2023-01-19T07:52:32.473Z,11.74
2023-01-19T07:55:00.403Z,11.52
2023-01-19T07:57:28.553Z,11.91
2023-01-19T07:59:56.479Z,12.00
2023-01-19T08:02:25.536Z,12.12
2023-01-19T08:04:55.190Z,12.17
2023-01-19T08:07:23.203Z,12.38
2023-01-19T08:09:51.329Z,12.61
2023-01-19T08:12:19.243Z,12.44
2023-01-19T08:14:47.184Z,12.66
2023-01-19T08:17:15.256Z,12.71
2023-01-19T08:19:43.950Z,13.01
2023-01-19T08:22:13.259Z,13.20
2023-01-19T08:24:41.201Z,13.34
2023-01-19T08:27:12.223Z,13.68
2023-01-19T08:29:40.500Z,13.80
2023-01-19T08:32:08.535Z,13.74
2023-01-19T08:34:36.645Z,13.64
2023-01-19T08:37:04.630Z,13.71
2023-01-19T08:39:33.883Z,13.72
2023-01-19T08:42:01.750Z,14.05
2023-01-19T08:44:29.677Z,14.03
2023-01-19T08:46:57.599Z,14.32
2023-01-19T08:49:25.572Z,14.34
2023-01-19T08:51:53.513Z,14.69
2023-01-19T08:54:23.153Z,14.98
2023-01-19T08:56:52.612Z,14.82
2023-01-19T08:59:20.608Z,14.88
2023-01-19T09:01:48.804Z,15.38
2023-01-19T09:04:16.807Z,15.76
2023-01-19T09:06:44.905Z,16.16
2023-01-19T09:09:12.902Z,16.14
2023-01-19T09:11:40.870Z,15.90
2023-01-19T09:14:10.171Z,16.13
2023-01-19T09:16:38.192Z,16.34
2023-01-19T09:19:08.605Z,16.06
2023-01-19T09:21:36.821Z,16.16
2023-01-19T09:24:05.160Z,16.00
2023-01-19T09:26:33.343Z,16.06
2023-01-19T09:29:01.312Z,16.12
2023-01-19T09:31:30.695Z,16.49
2023-01-19T09:33:58.610Z,16.24
2023-01-19T09:36:26.632Z,16.43
2023-01-19T09:38:54.569Z,16.62
2023-01-19T09:41:25.126Z,16.62
2023-01-19T09:43:57.918Z,16.87
2023-01-19T09:46:34.628Z,17.01
2023-01-19T09:49:06.710Z,17.29
2023-01-19T09:51:38.524Z,17.19
2023-01-19T09:54:14.178Z,17.70
2023-01-19T09:56:43.043Z,17.70
2023-01-19T09:59:20.561Z,17.60
2023-01-19T10:02:10.463Z,17.60
2023-01-19T10:04:42.237Z,17.82
2023-01-19T10:07:23.889Z,17.86
2023-01-19T10:10:04.467Z,17.85
2023-01-19T10:12:42.805Z,17.87
2023-01-19T10:15:20.620Z,17.79
2023-01-19T10:17:57.210Z,17.91
2023-01-19T10:20:33.420Z,17.90
2023-01-19T10:23:03.292Z,17.73
2023-01-19T10:25:32.357Z,17.74
2023-01-19T10:28:01.907Z,17.76
2023-01-19T10:30:30.832Z,17.86
2023-01-19T10:33:00.525Z,17.90
2023-01-19T10:35:29.516Z,18.23
2023-01-19T10:38:02.018Z,18.40
2023-01-19T10:40:34.897Z,18.38
2023-01-19T10:43:03.210Z,18.64
2023-01-19T10:45:32.780Z,18.75
2023-01-19T10:48:07.491Z,18.54
2023-01-19T10:50:39.793Z,18.53
2023-01-19T10:53:20.496Z,18.76
2023-01-19T10:55:48.596Z,18.98
2023-01-19T10:58:30.098Z,19.11
2023-01-19T11:01:14.932Z,19.24
2023-01-19T11:03:44.603Z,19.09
2023-01-19T11:06:30.907Z,19.23
2023-01-19T11:09:13.667Z,19.26
2023-01-19T11:11:47.503Z,19.02
2023-01-19T11:14:19.429Z,19.11
2023-01-19T11:16:49.997Z,19.18
2023-01-19T11:19:27.168Z,19.22
2023-01-19T11:22:10.778Z,19.18
2023-01-19T11:24:40.264Z,19.42
2023-01-19T11:27:08.473Z,19.57
2023-01-19T11:29:39.011Z,19.73
2023-01-19T11:32:20.353Z,19.86
2023-01-19T11:34:50.830Z,19.82
2023-01-19T11:37:30.987Z,19.76
2023-01-19T11:40:02.934Z,19.92
2023-01-19T11:42:34.054Z,19.70
2023-01-19T11:45:07.183Z,19.75
2023-01-19T11:47:41.292Z,19.72
2023-01-19T11:50:16.624Z,19.83
2023-01-19T11:52:48.976Z,19.61
2023-01-19T11:55:23.823Z,19.61
2023-01-19T11:57:54.746Z,19.58
2023-01-19T12:00:29.284Z,19.50
2023-01-19T12:03:04.241Z,19.62
2023-01-19T12:05:36.881Z,19.60
2023-01-19T12:08:08.688Z,19.65
2023-01-19T12:10:41.679Z,19.46
2023-01-19T12:13:22.312Z,19.53
2023-01-19T12:15:54.531Z,19.57
2023-01-19T12:18:25.430Z,19.67
2023-01-19T12:20:57.068Z,19.79
2023-01-19T12:23:33.613Z,19.86
2023-01-19T12:26:23.036Z,19.85
2023-01-19T12:28:53.495Z,19.81
2023-01-19T12:31:23.828Z,19.86
2023-01-19T12:33:52.357Z,19.98
2023-01-19T12:36:39.496Z,19.97
2023-01-19T12:39:18.020Z,19.87
2023-01-19T12:41:47.183Z,19.78
2023-01-19T12:44:34.245Z,19.78
2023-01-19T12:47:20.270Z,19.79
2023-01-19T12:49:51.695Z,19.74
2023-01-19T12:52:28.107Z,19.81
2023-01-19T12:55:03.448Z,19.49
2023-01-19T12:57:35.456Z,19.57
2023-01-19T13:00:07.110Z,19.44
2023-01-19T13:02:54.406Z,19.47
2023-01-19T13:05:41.725Z,19.41
2023-01-19T13:08:22.388Z,19.52
2023-01-19T13:11:23.819Z,19.64
2023-01-19T13:14:35.551Z,19.68
2023-01-19T13:17:19.687Z,19.62
2023-01-19T13:20:20.326Z,19.55
2023-01-19T13:23:20.882Z,19.49
2023-01-19T13:25:53.935Z,19.48
2023-01-19T13:28:31.662Z,19.48
2023-01-19T13:31:02.783Z,19.57
2023-01-19T13:33:40.839Z,19.50
2023-01-19T13:36:21.019Z,19.43
2023-01-19T13:38:50.822Z,19.47
2023-01-19T13:41:24.564Z,19.49
2023-01-19T13:43:59.796Z,19.46
2023-01-19T13:46:28.723Z,19.40
2023-01-19T13:48:59.191Z,19.39
2023-01-19T13:51:27.154Z,19.21
2023-01-19T13:53:56.324Z,19.07
2023-01-19T13:56:28.554Z,18.93
2023-01-19T13:59:09.893Z,19.01
2023-01-19T14:01:40.052Z,18.98
2023-01-19T14:04:24.958Z,18.73
2023-01-19T14:06:55.606Z,18.59
2023-01-19T14:09:23.927Z,18.70
2023-01-19T14:12:14.398Z,18.70
2023-01-19T14:14:43.518Z,18.52
2023-01-19T14:17:26.542Z,18.59
2023-01-19T14:19:56.199Z,18.65
2023-01-19T14:22:40.262Z,18.53
2023-01-19T14:25:28.761Z,18.51
2023-01-19T14:28:39.370Z,18.37
2023-01-19T14:31:21.166Z,18.46
2023-01-19T14:33:51.310Z,18.33
2023-01-19T14:36:29.947Z,18.09
2023-01-19T14:39:00.080Z,18.24
2023-01-19T14:41:32.357Z,18.25
2023-01-19T14:44:02.091Z,18.22
2023-01-19T14:46:30.522Z,18.09
2023-01-19T14:49:03.327Z,17.79
2023-01-19T14:51:32.257Z,17.92
2023-01-19T14:54:02.143Z,17.83
2023-01-19T14:56:31.828Z,17.82
2023-01-19T14:59:02.685Z,17.75
2023-01-19T15:01:31.356Z,17.74
2023-01-19T15:03:59.680Z,17.68
2023-01-19T15:06:27.896Z,17.41
2023-01-19T15:08:56.288Z,17.33
2023-01-19T15:11:27.684Z,17.19
2023-01-19T15:13:55.748Z,17.12
2023-01-19T15:16:25.569Z,17.06
2023-01-19T15:18:53.597Z,17.02
2023-01-19T15:21:26.585Z,16.83
2023-01-19T15:23:55.471Z,16.86
2023-01-19T15:26:25.510Z,16.94
2023-01-19T15:28:53.894Z,16.71
2023-01-19T15:31:25.717Z,16.72
2023-01-19T15:33:53.703Z,16.72
2023-01-19T15:36:24.185Z,16.61
2023-01-19T15:38:52.237Z,16.67
2023-01-19T15:41:26.858Z,16.69
2023-01-19T15:43:54.992Z,16.33
2023-01-19T15:46:25.339Z,16.31
2023-01-19T15:48:54.476Z,16.37
2023-01-19T15:51:25.183Z,16.29
2023-01-19T15:53:54.374Z,16.29
2023-01-19T15:56:24.788Z,16.19
2023-01-19T15:58:53.453Z,16.19
2023-01-19T16:01:23.111Z,16.23
2023-01-19T16:03:52.518Z,16.16
2023-01-19T16:06:20.464Z,16.13
2023-01-19T16:08:48.415Z,16.11
2023-01-19T16:11:18.560Z,16.00
2023-01-19T16:13:47.345Z,16.09
2023-01-19T16:16:18.218Z,16.03
2023-01-19T16:18:46.184Z,16.05
2023-01-19T16:21:15.551Z,15.95
2023-01-19T16:23:43.690Z,16.04
2023-01-19T16:26:26.124Z,15.80
2023-01-19T16:28:54.267Z,15.83
2023-01-19T16:31:22.211Z,15.92
2023-01-19T16:33:50.460Z,15.75
2023-01-19T16:36:25.884Z,15.83
2023-01-19T16:38:54.292Z,15.79
2023-01-19T16:41:22.477Z,15.75
2023-01-19T16:43:54.379Z,15.79
2023-01-19T16:46:24.595Z,15.65
2023-01-19T16:48:53.118Z,15.80
2023-01-19T16:51:22.397Z,15.70
2023-01-19T16:53:50.664Z,15.57
2023-01-19T16:56:19.015Z,15.39
2023-01-19T16:58:47.211Z,15.39
2023-01-19T17:01:19.925Z,15.33
2023-01-19T17:03:48.712Z,15.06
2023-01-19T17:06:20.125Z,15.20
2023-01-19T17:08:50.326Z,15.16
2023-01-19T17:11:20.843Z,15.03
2023-01-19T17:13:49.088Z,14.97
2023-01-19T17:16:17.031Z,14.58
2023-01-19T17:18:45.059Z,13.97
2023-01-19T17:21:14.159Z,13.47
2023-01-19T17:23:43.915Z,13.38
2023-01-19T17:26:13.224Z,13.42
2023-01-19T17:28:42.006Z,13.68
2023-01-19T17:31:12.541Z,13.75
2023-01-19T17:33:41.540Z,13.80
2023-01-19T17:36:12.501Z,13.72
2023-01-19T17:38:41.398Z,13.71
2023-01-19T17:41:18.512Z,13.75
2023-01-19T17:43:46.788Z,13.72
2023-01-19T17:46:15.104Z,13.42
2023-01-19T17:48:43.193Z,13.24
2023-01-19T17:51:13.087Z,13.42
2023-01-19T17:53:42.698Z,13.25
2023-01-19T17:56:13.115Z,13.03
2023-01-19T17:58:42.873Z,13.11
2023-01-19T18:01:11.584Z,13.40
2023-01-19T18:03:39.693Z,13.37
2023-01-19T18:06:08.436Z,13.28
2023-01-19T18:08:38.981Z,13.28
2023-01-19T18:11:07.608Z,13.22
2023-01-19T18:13:35.780Z,13.18
2023-01-19T18:16:07.179Z,13.17
2023-01-19T18:18:36.024Z,13.12
2023-01-19T18:21:06.253Z,13.21
2023-01-19T18:23:34.774Z,13.22
2023-01-19T18:26:04.311Z,13.42
2023-01-19T18:28:33.179Z,13.55
2023-01-19T18:31:01.540Z,13.47
2023-01-19T18:33:32.262Z,13.50
2023-01-19T18:36:00.255Z,13.47
2023-01-19T18:38:28.302Z,13.34
2023-01-19T18:41:04.022Z,13.50
2023-01-19T18:43:32.402Z,13.58
2023-01-19T18:46:00.644Z,13.53
2023-01-19T18:48:30.279Z,13.62
2023-01-19T18:51:03.272Z,13.61
2023-01-19T18:53:32.458Z,13.53
2023-01-19T18:56:03.301Z,13.53
2023-01-19T18:58:32.558Z,13.48
2023-01-19T19:01:02.028Z,13.46
2023-01-19T19:03:31.581Z,13.36
2023-01-19T19:06:03.760Z,13.30
2023-01-19T19:08:31.862Z,13.26
2023-01-19T19:10:59.815Z,13.24
2023-01-19T19:13:27.774Z,13.25
2023-01-19T19:15:58.058Z,13.26
2023-01-19T19:18:26.074Z,13.26
2023-01-19T19:20:55.403Z,13.08
2023-01-19T19:23:23.428Z,13.30
2023-01-19T19:25:51.357Z,13.37
2023-01-19T19:28:19.525Z,13.37
2023-01-19T19:30:51.424Z,13.50
2023-01-19T19:33:19.418Z,13.72
2023-01-19T19:35:48.128Z,13.77
2023-01-19T19:38:17.460Z,13.93
2023-01-19T19:40:45.432Z,13.92
2023-01-19T19:43:13.339Z,13.92
2023-01-19T19:45:41.317Z,13.61
2023-01-19T19:48:09.215Z,13.70
2023-01-19T19:50:37.161Z,13.63
2023-01-19T19:53:05.048Z,13.65
2023-01-19T19:55:34.376Z,13.77
2023-01-19T19:58:03.494Z,13.80
2023-01-19T20:00:31.507Z,13.94
2023-01-19T20:02:59.466Z,14.03
2023-01-19T20:05:27.440Z,13.99
2023-01-19T20:07:55.376Z,14.12
2023-01-19T20:10:25.086Z,14.13
2023-01-19T20:12:54.387Z,14.27
2023-01-19T20:15:22.400Z,14.33
2023-01-19T20:17:50.347Z,14.31
2023-01-19T20:20:18.673Z,14.40
2023-01-19T20:22:46.565Z,14.38
2023-01-19T20:25:14.919Z,14.46
2023-01-19T20:27:44.957Z,14.43
2023-01-19T20:30:15.058Z,14.47
2023-01-19T20:32:43.043Z,14.38
2023-01-19T20:35:13.528Z,14.40
2023-01-19T20:37:41.664Z,14.34
2023-01-19T20:40:10.887Z,14.43
2023-01-19T20:42:41.340Z,14.57
2023-01-19T20:45:10.038Z,14.64
2023-01-19T20:47:39.628Z,14.63
2023-01-19T20:50:08.730Z,14.31
2023-01-19T20:52:36.871Z,14.07
2023-01-19T20:55:07.480Z,13.78
2023-01-19T20:57:35.571Z,13.96
2023-01-19T21:00:03.513Z,13.67
2023-01-19T21:02:31.581Z,13.56
2023-01-19T21:05:00.948Z,13.50
2023-01-19T21:07:28.809Z,13.56
2023-01-19T21:09:56.844Z,13.98
2023-01-19T21:12:24.745Z,14.15
2023-01-19T21:14:52.749Z,14.19
2023-01-19T21:17:20.619Z,14.23
2023-01-19T21:19:48.635Z,13.87
2023-01-19T21:22:17.909Z,13.71
2023-01-19T21:24:45.836Z,13.57
2023-01-19T21:27:13.820Z,13.60
2023-01-19T21:29:41.888Z,13.61
2023-01-19T21:32:09.800Z,13.43
2023-01-19T21:34:37.901Z,13.53
2023-01-19T21:37:05.880Z,13.62
2023-01-19T21:39:35.127Z,13.70
2023-01-19T21:42:03.089Z,13.81
2023-01-19T21:44:31.105Z,13.99
2023-01-19T21:46:59.063Z,14.09
2023-01-19T21:49:26.973Z,13.64
2023-01-19T21:51:55.332Z,13.50
2023-01-19T21:54:23.230Z,13.24
2023-01-19T21:56:52.497Z,12.97
2023-01-19T21:59:20.615Z,13.12
2023-01-19T22:01:48.625Z,13.89
2023-01-19T22:04:16.638Z,14.79
2023-01-19T22:06:44.614Z,14.82
2023-01-19T22:09:12.516Z,14.59
2023-01-19T22:11:40.616Z,14.43
2023-01-19T22:14:25.166Z,13.86
2023-01-19T22:16:53.154Z,13.78
2023-01-19T22:19:21.099Z,13.80
2023-01-19T22:21:49.249Z,13.88
2023-01-19T22:24:17.257Z,13.84
2023-01-19T22:26:45.159Z,13.58
2023-01-19T22:29:13.415Z,13.47
2023-01-19T22:31:43.192Z,13.14
2023-01-19T22:34:11.837Z,12.77
2023-01-19T22:36:39.762Z,12.87
2023-01-19T22:39:09.282Z,12.51
2023-01-19T22:41:39.460Z,12.32
2023-01-19T22:44:10.018Z,12.54
2023-01-19T22:46:38.781Z,12.79
2023-01-19T22:49:09.626Z,12.86
2023-01-19T22:51:37.854Z,12.88
2023-01-19T22:54:06.214Z,12.78
2023-01-19T22:56:36.285Z,12.95
2023-01-19T22:59:05.698Z,13.02
2023-01-19T23:01:35.592Z,12.83
2023-01-19T23:04:04.673Z,13.04
2023-01-19T23:06:35.648Z,12.85
2023-01-19T23:09:09.102Z,13.27
2023-01-19T23:11:39.322Z,13.45
2023-01-19T23:14:09.609Z,13.41
2023-01-19T23:16:37.509Z,13.38
2023-01-19T23:19:06.034Z,13.49
2023-01-19T23:21:35.252Z,13.52
2023-01-19T23:24:04.827Z,13.43
2023-01-19T23:26:38.051Z,13.55
2023-01-19T23:29:08.273Z,13.63
2023-01-19T23:31:38.449Z,13.75
2023-01-19T23:34:08.059Z,14.10
2023-01-19T23:36:39.143Z,14.11
2023-01-19T23:39:10.139Z,14.09
2023-01-19T23:41:38.114Z,14.35
2023-01-19T23:44:06.653Z,15.03
2023-01-19T23:46:34.671Z,15.45
2023-01-19T23:49:02.597Z,14.96
2023-01-19T23:51:31.928Z,14.74
2023-01-19T23:54:02.012Z,14.79
2023-01-19T23:56:32.195Z,14.79
2023-01-19T23:59:01.467Z,14.83
